KRID

Richmond Municipal Airport

Richmond, Indiana, USA
METAR KRID 231015Z AUTO 27007KT 10SM CLR 04/03 A3012 RMK AO2
Observed Flight Rules
Oct-23 @ 10:15 UTC (21 minutes ago) Visual Flight Rules
Wind Visibility Clouds
270° at 7 knots 10 miles
  • Clear skies
Temperatures Readings
Current 4°C / 39°F
Dewpoint 3°C / 37°F
Humidity 93%
Altimeter 30.12" Hg
Pressure 1020 hPa
Elevation 348
METAR KRID 231015Z AUTO 27007KT 10SM CLR 04/03 A3012 RMK AO2
Observed Flight Rules
Oct-23 @ 10:15 UTC
(21 minutes ago)
VFR
Wind Visibility
270° at 7 knots 10 miles
Clouds
  • Clear skies
Temperature Dewpoint
4°C / 39°F 3°C / 37°F
Humidity Altimeter Pressure
93% 30.12" Hg 1020 hPa